Capt Al Devall — WCW9164 — position and weather

sailwx.info

Track history (hours):
 
Tides and Currents Weather Stations Pressure Air Temp Water Temp Dewpoint Dewpoint Depression Visibility Wind Speed Wind Dir Waves Ship Positions

Capt Al Devall

Owner: J & J DEVALL MARITIME MARINE OPERATORS, Sulphur, LA. More information available from US FCC via Universal Licensing System and Coast Guard Vessel Documentation Center.

Last reported at 2018-Nov-11 02:32 UTC. Time now 2018-Nov-14 05:29 UTC.
Position N 30°04' W 093°45'.

; draft 3 m.

Type: Towing. MMSI: 366972270.

Date/timePositionNaut miles runAvg speedWind from/ knotsBaromVisibWave heightAir tempDewpointWater temp
2018-Nov-11 02:32N 30°04' W 093°45'0 0.0
2018-Nov-11 01:47N 30°04' W 093°45'0 0.0
2018-Nov-11 00:47N 30°04' W 093°45'0 0.0
2018-Nov-11 00:29N 30°04' W 093°45'1 0.5
2018-Nov-10 21:34N 30°03' W 093°44'0 7.3
2018-Nov-10 21:31N 30°03' W 093°43'1 2.5
2018-Nov-10 21:00N 30°04' W 093°43'0 0.0
2018-Nov-10 20:27N 30°04' W 093°43'0 0.0
2018-Nov-10 20:00N 30°04' W 093°43'0 0.0
2018-Nov-10 19:30N 30°04' W 093°43'0 0.0
2018-Nov-10 19:00N 30°04' W 093°43'0 0.0
2018-Nov-10 18:30N 30°04' W 093°43'0 0.0
2018-Nov-10 18:00N 30°04' W 093°43'0 0.0
2018-Nov-10 17:24N 30°04' W 093°43'0 0.0
2018-Nov-10 17:00N 30°04' W 093°43'0 0.0
2018-Nov-10 16:30N 30°04' W 093°43'0 0.0
2018-Nov-10 15:57N 30°04' W 093°43'0 0.0
2018-Nov-10 15:27N 30°04' W 093°43'0 0.0
2018-Nov-10 15:00N 30°04' W 093°43'0 0.0
2018-Nov-10 14:27N 30°04' W 093°43'0 0.0
2018-Nov-10 14:00N 30°04' W 093°43'0 0.0
2018-Nov-10 13:30N 30°04' W 093°43'0 0.0
2018-Nov-10 13:00N 30°04' W 093°43'0 0.0
2018-Nov-10 12:30N 30°04' W 093°43'0 0.0
2018-Nov-10 12:00N 30°04' W 093°43'0 0.0
2018-Nov-10 11:27N 30°04' W 093°43'1 2.6
2018-Nov-10 11:02N 30°03' W 093°43'1 0.6
2018-Nov-10 09:30N 30°03' W 093°44'0 0.0
2018-Nov-10 08:00N 30°03' W 093°44'0 0.0
2018-Nov-10 07:00N 30°03' W 093°44'0 0.0
2018-Nov-10 04:39N 30°03' W 093°44'0 0.0
2018-Nov-10 01:19N 30°03' W 093°44'0 0.1
2018-Nov-10 00:57N 30°03' W 093°44'0 0.0
2018-Nov-10 00:27N 30°03' W 093°44'0 0.1
2018-Nov-09 23:34N 30°03' W 093°44'0 0.1
2018-Nov-09 23:24N 30°03' W 093°44'1 3.8
2018-Nov-09 23:02N 30°02' W 093°44'2 4.6
2018-Nov-09 22:32N 30°00' W 093°46'2 4.7
2018-Nov-09 22:02N 29°59' W 093°48'3 5.9
2018-Nov-09 21:32N 29°58' W 093°51'3 5.7
2018-Nov-09 21:02N 29°55' W 093°53'3 5.6
2018-Nov-09 20:32N 29°53' W 093°55'3 5.3
2018-Nov-09 20:02N 29°51' W 093°57'2 4.3
2018-Nov-09 19:32N 29°49' W 093°58'2 3.7
2018-Nov-09 19:02N 29°48' W 094°00'3 6.0
2018-Nov-09 18:32N 29°46' W 094°03'3 6.1
2018-Nov-09 18:02N 29°44' W 094°05'3 6.0
2018-Nov-09 17:32N 29°42' W 094°08'3 5.7
2018-Nov-09 17:02N 29°41' W 094°11'3 5.4
2018-Nov-09 16:32N 29°40' W 094°14'3 5.1
2018-Nov-09 16:02N 29°39' W 094°16'2 5.0
2018-Nov-09 15:32N 29°38' W 094°19'2 4.9
2018-Nov-09 15:02N 29°37' W 094°22'2 4.5
2018-Nov-09 14:32N 29°36' W 094°24'2 4.2
2018-Nov-09 13:59N 29°34' W 094°26'21 3.1
2018-Nov-09 07:15N 29°23' W 094°46'2 6.0
2018-Nov-09 06:59N 29°22' W 094°47'8 6.8
2018-Nov-09 05:51N 29°29' W 094°52'2 6.7
2018-Nov-09 05:32N 29°31' W 094°53'3 6.6
2018-Nov-09 05:03N 29°33' W 094°55'3 6.8
2018-Nov-09 04:32N 29°36' W 094°57'3 6.2
2018-Nov-09 04:02N 29°37' W 095°01'0 1.0
2018-Nov-09 03:32N 29°36' W 095°01'0 0.0
2018-Nov-09 03:02N 29°36' W 095°01'0 0.0
2018-Nov-09 02:32N 29°36' W 095°01'0 0.0
2018-Nov-09 02:02N 29°36' W 095°01'0 0.0
2018-Nov-09 01:29N 29°36' W 095°01'0 0.0
2018-Nov-09 01:01N 29°36' W 095°01'0 0.5
2018-Nov-09 00:32N 29°37' W 095°01'0 0.0
2018-Nov-09 00:02N 29°37' W 095°01'0 0.4
2018-Nov-08 23:32N 29°37' W 095°01'0 0.4
2018-Nov-08 23:02N 29°37' W 095°01'0 0.5
2018-Nov-08 22:32N 29°36' W 095°01'0 0.0
2018-Nov-08 22:02N 29°36' W 095°01'0 0.0
2018-Nov-08 21:29N 29°36' W 095°01'0 0.0
2018-Nov-08 21:02N 29°36' W 095°01'0 0.0
2018-Nov-08 20:32N 29°36' W 095°01'0 0.0
2018-Nov-08 20:02N 29°36' W 095°01'0 0.0
2018-Nov-08 19:32N 29°36' W 095°01'0 0.0
2018-Nov-08 19:02N 29°36' W 095°01'0 0.0
2018-Nov-08 18:32N 29°36' W 095°01'0 0.0
2018-Nov-08 18:02N 29°36' W 095°01'0 0.0
2018-Nov-08 17:32N 29°36' W 095°01'0 0.0
2018-Nov-08 17:02N 29°36' W 095°01'0 0.0
2018-Nov-08 16:32N 29°36' W 095°01'0 0.0
2018-Nov-08 16:02N 29°36' W 095°01'0 0.0
2018-Nov-08 15:32N 29°36' W 095°01'0 0.0
2018-Nov-08 15:02N 29°36' W 095°01'0 0.0
2018-Nov-08 14:32N 29°36' W 095°01'0 0.0
2018-Nov-08 14:02N 29°36' W 095°01'0 0.0
2018-Nov-08 13:32N 29°36' W 095°01'0 0.0
2018-Nov-08 13:02N 29°36' W 095°01'0 0.0
2018-Nov-08 12:32N 29°36' W 095°01'0 0.0
2018-Nov-08 12:02N 29°36' W 095°01'0 0.0
2018-Nov-08 10:35N 29°36' W 095°01'0 0.0
2018-Nov-08 10:29N 29°36' W 095°01'0 0.0
2018-Nov-08 10:02N 29°36' W 095°01'0 0.0
2018-Nov-08 09:32N 29°36' W 095°01'0 0.0
2018-Nov-08 08:59N 29°36' W 095°01'0 0.0
2018-Nov-08 08:29N 29°36' W 095°01'0 0.0
2018-Nov-08 08:02N 29°36' W 095°01'0 0.0
2018-Nov-08 07:32N 29°36' W 095°01'0 0.0
2018-Nov-08 07:02N 29°36' W 095°01'0 0.0
2018-Nov-08 06:32N 29°36' W 095°01'0 0.1
2018-Nov-08 06:01N 29°37' W 095°01'0 0.5
2018-Nov-08 05:31N 29°37' W 095°01'2 4.7
2018-Nov-08 05:03N 29°37' W 094°59'3 5.7
2018-Nov-08 04:31N 29°35' W 094°56'3 6.7
2018-Nov-08 04:02N 29°32' W 094°54'6 6.7
2018-Nov-08 03:07N 29°27' W 094°50'1 6.7
2018-Nov-08 03:02N 29°26' W 094°50'4 7.1
2018-Nov-08 02:32N 29°23' W 094°49'2 4.7
2018-Nov-08 02:02N 29°23' W 094°46'4 5.7
2018-Nov-08 01:18N 29°26' W 094°42'3 3.7
2018-Nov-08 00:35N 29°28' W 094°40'5 5.1
2018-Nov-07 23:39N 29°29' W 094°35'1 5.3
2018-Nov-07 23:25N 29°30' W 094°34'2 5.5
2018-Nov-07 22:59N 29°31' W 094°31'4 5.2
2018-Nov-07 22:13N 29°34' W 094°28'1 5.0
2018-Nov-07 22:02N 29°34' W 094°27'1 2.3
2018-Nov-07 21:32N 29°34' W 094°25'2 4.1
2018-Nov-07 21:02N 29°36' W 094°24'2 3.0
2018-Nov-07 20:18N 29°36' W 094°22'1 4.5
2018-Nov-07 20:02N 29°37' W 094°21'2 5.0
2018-Nov-07 19:32N 29°38' W 094°18'3 5.2
2018-Nov-07 19:02N 29°39' W 094°15'3 5.1
2018-Nov-07 18:32N 29°41' W 094°13'3 5.0
2018-Nov-07 18:02N 29°41' W 094°10'2 4.7
2018-Nov-07 17:32N 29°43' W 094°08'2 4.9
2018-Nov-07 17:02N 29°44' W 094°05'2 4.9
2018-Nov-07 16:32N 29°46' W 094°03'2 4.8
2018-Nov-07 16:02N 29°47' W 094°01'2 4.5
2018-Nov-07 15:32N 29°49' W 093°59'1 2.5
2018-Nov-07 15:02N 29°49' W 093°58'0 0.0
2018-Nov-07 14:31N 29°49' W 093°58'0 0.0
2018-Nov-07 14:01N 29°49' W 093°58'0 0.0
2018-Nov-07 13:31N 29°49' W 093°58'0 0.0
2018-Nov-07 13:01N 29°49' W 093°58'0 0.0
2018-Nov-07 12:31N 29°49' W 093°58'0 0.0
2018-Nov-07 12:01N 29°49' W 093°58'0 0.0
2018-Nov-07 11:31N 29°49' W 093°58'0 0.0
2018-Nov-07 11:01N 29°49' W 093°58'0 0.0
2018-Nov-07 10:31N 29°49' W 093°58'0 0.0
2018-Nov-07 10:01N 29°49' W 093°58'0 0.0
2018-Nov-07 09:31N 29°49' W 093°58'0 0.0
2018-Nov-07 09:01N 29°49' W 093°58'0 0.0
2018-Nov-07 08:31N 29°49' W 093°58'0 0.0
2018-Nov-07 08:01N 29°49' W 093°58'0 0.0
2018-Nov-07 07:31N 29°49' W 093°58'0 0.0
2018-Nov-07 07:01N 29°49' W 093°58'0 0.0
2018-Nov-07 06:31N 29°49' W 093°58'0 0.0
2018-Nov-07 06:01N 29°49' W 093°58'0 0.0
2018-Nov-07 05:31N 29°49' W 093°58'0 0.0
2018-Nov-07 05:01N 29°49' W 093°58'0 0.0
2018-Nov-07 04:31N 29°49' W 093°58'17 3.4
2018-Nov-06 23:30N 30°02' W 093°44'2 3.7
2018-Nov-06 23:01N 30°03' W 093°44'0 0.9
2018-Nov-06 22:58N 30°03' W 093°44'0 0.1
2018-Nov-06 21:53N 30°03' W 093°44'0 0.0
2018-Nov-06 21:29N 30°03' W 093°44'0 0.0
2018-Nov-06 21:02N 30°03' W 093°44'0 0.0
2018-Nov-06 20:53N 30°03' W 093°44'0 0.0
2018-Nov-06 20:26N 30°03' W 093°44'0 0.0
2018-Nov-06 20:02N 30°03' W 093°44'0 0.0
2018-Nov-06 19:59N 30°03' W 093°44'0 0.0
2018-Nov-06 19:26N 30°03' W 093°44'0 0.0
2018-Nov-06 19:02N 30°03' W 093°44'0 0.1
2018-Nov-06 18:59N 30°03' W 093°44'0 0.0
2018-Nov-06 18:29N 30°03' W 093°44'0 0.0
2018-Nov-06 18:02N 30°03' W 093°44'0 0.0
2018-Nov-06 17:59N 30°03' W 093°44'0 0.0
2018-Nov-06 17:29N 30°03' W 093°44'0 0.0
2018-Nov-06 16:44N 30°03' W 093°44'0 0.0
2018-Nov-06 16:29N 30°03' W 093°44'0 0.0
2018-Nov-06 15:59N 30°03' W 093°44'0 0.0
2018-Nov-06 15:29N 30°03' W 093°44'0 0.0
2018-Nov-06 14:56N 30°03' W 093°44'0 0.0
2018-Nov-06 14:29N 30°03' W 093°44'0 0.0
2018-Nov-06 14:02N 30°03' W 093°44'0 0.1
2018-Nov-06 13:59N 30°03' W 093°44'0 0.0
2018-Nov-06 13:26N 30°03' W 093°44'0 0.0
2018-Nov-06 13:02N 30°03' W 093°44'0 0.0
2018-Nov-06 12:56N 30°03' W 093°44'0 0.0
2018-Nov-06 12:29N 30°03' W 093°44'0 0.0
2018-Nov-06 11:59N 30°03' W 093°44'0 0.0
2018-Nov-06 11:29N 30°03' W 093°44'0 0.0
2018-Nov-06 10:56N 30°03' W 093°44'0 0.0
2018-Nov-06 10:29N 30°03' W 093°44'0 0.0
2018-Nov-06 10:02N 30°03' W 093°44'0 0.0
2018-Nov-06 09:56N 30°03' W 093°44'0 0.0
2018-Nov-06 09:23N 30°03' W 093°44'0 0.0
2018-Nov-06 09:02N 30°03' W 093°44'0 0.0
2018-Nov-06 08:59N 30°03' W 093°44'0 0.0
2018-Nov-06 08:29N 30°03' W 093°44'0 0.0
2018-Nov-06 08:02N 30°03' W 093°44'0 0.0
2018-Nov-06 07:56N 30°03' W 093°44'0 0.0
2018-Nov-06 07:26N 30°03' W 093°44'0 0.0
2018-Nov-06 07:02N 30°03' W 093°44'0 0.0
2018-Nov-06 06:59N 30°03' W 093°44'0 0.0
2018-Nov-06 06:29N 30°03' W 093°44'0 0.0
2018-Nov-06 06:02N 30°03' W 093°44'0 0.0
2018-Nov-06 05:59N 30°03' W 093°44'0 0.0
2018-Nov-06 05:29N 30°03' W 093°44'0 0.0
2018-Nov-06 05:02N 30°03' W 093°44'0 0.0
2018-Nov-06 04:59N 30°03' W 093°44'0 0.0
2018-Nov-06 04:29N 30°03' W 093°44'0 0.0
2018-Nov-06 04:02N 30°03' W 093°44'0 0.0
2018-Nov-06 03:59N 30°03' W 093°44'0 0.0
2018-Nov-06 03:29N 30°03' W 093°44'0 0.0
2018-Nov-06 03:02N 30°03' W 093°44'0 0.0
2018-Nov-06 02:56N 30°03' W 093°44'0 0.0
2018-Nov-06 02:23N 30°03' W 093°44'0 0.0
2018-Nov-06 01:47N 30°03' W 093°44'0 0.0
2018-Nov-06 01:26N 30°03' W 093°44'0 0.0
2018-Nov-06 00:29N 30°03' W 093°44'0 0.0
2018-Nov-05 23:28N 30°03' W 093°44'0 0.0
2018-Nov-05 23:01N 30°03' W 093°44'0 0.0
2018-Nov-05 22:58N 30°03' W 093°44'0 0.0
2018-Nov-05 22:28N 30°03' W 093°44'0 0.0
2018-Nov-05 21:58N 30°03' W 093°44'0 0.1
2018-Nov-05 21:30N 30°03' W 093°44'0 0.1
2018-Nov-05 21:03N 30°03' W 093°44'0 0.0
2018-Nov-05 20:57N 30°03' W 093°44'0 0.0
2018-Nov-05 20:30N 30°03' W 093°44'0 0.0
2018-Nov-05 20:03N 30°03' W 093°44'0 0.0
2018-Nov-05 20:00N 30°03' W 093°44'0 0.0
2018-Nov-05 19:30N 30°03' W 093°44'0 0.0
2018-Nov-05 19:03N 30°03' W 093°44'0 0.0
2018-Nov-05 18:51N 30°03' W 093°44'0 0.0
2018-Nov-05 18:27N 30°03' W 093°44'0 0.0
2018-Nov-05 18:03N 30°03' W 093°44'0 0.0
2018-Nov-05 18:00N 30°03' W 093°44'0 0.0
2018-Nov-05 17:30N 30°03' W 093°44'0 0.0
2018-Nov-05 17:03N 30°03' W 093°44'0 0.0
2018-Nov-05 17:00N 30°03' W 093°44'0 0.0
2018-Nov-05 16:30N 30°03' W 093°44'0 0.0
2018-Nov-05 16:03N 30°03' W 093°44'0 0.0
2018-Nov-05 16:00N 30°03' W 093°44'0 0.0
2018-Nov-05 15:30N 30°03' W 093°44'0 0.0
2018-Nov-05 15:03N 30°03' W 093°44'0 0.0
2018-Nov-05 14:57N 30°03' W 093°44'0 0.0
2018-Nov-05 14:30N 30°03' W 093°44'0 0.0
2018-Nov-05 13:57N 30°03' W 093°44'0 0.0
2018-Nov-05 13:30N 30°03' W 093°44'0 0.0
2018-Nov-05 13:03N 30°03' W 093°44'0 0.0
2018-Nov-05 13:00N 30°03' W 093°44'0 0.0
2018-Nov-05 12:30N 30°03' W 093°44'0 0.0
2018-Nov-05 12:03N 30°03' W 093°44'0 0.0
2018-Nov-05 11:58N 30°03' W 093°44'0 0.0
2018-Nov-05 11:29N 30°03' W 093°44'0 0.0
2018-Nov-05 11:02N 30°03' W 093°44'0 0.0
2018-Nov-05 10:59N 30°03' W 093°44'0 0.0
2018-Nov-05 10:26N 30°03' W 093°44'0 0.0
2018-Nov-05 10:02N 30°03' W 093°44'0 0.0
2018-Nov-05 09:59N 30°03' W 093°44'0 0.0
2018-Nov-05 09:23N 30°03' W 093°44'0 0.0
2018-Nov-05 09:02N 30°03' W 093°44'0 0.0
2018-Nov-05 08:56N 30°03' W 093°44'0 0.0
2018-Nov-05 08:29N 30°03' W 093°44'0 0.0
2018-Nov-05 08:02N 30°03' W 093°44'0 0.0
2018-Nov-05 07:59N 30°03' W 093°44'0 0.0
2018-Nov-05 07:26N 30°03' W 093°44'0 0.0
2018-Nov-05 06:59N 30°03' W 093°44'0 0.0
2018-Nov-05 06:29N 30°03' W 093°44'0 0.0
2018-Nov-05 06:02N 30°03' W 093°44'0 0.0
2018-Nov-05 05:59N 30°03' W 093°44'0 0.0
2018-Nov-05 05:29N 30°03' W 093°44'0 0.0
2018-Nov-05 05:02N 30°03' W 093°44'0 0.0
2018-Nov-05 04:56N 30°03' W 093°44'0 0.0
2018-Nov-05 04:29N 30°03' W 093°44'0 0.0
2018-Nov-05 04:02N 30°03' W 093°44'0 0.0
2018-Nov-05 03:56N 30°03' W 093°44'0 0.0
2018-Nov-05 03:29N 30°03' W 093°44'0 0.0
2018-Nov-05 02:56N 30°03' W 093°44'0 0.0
2018-Nov-05 02:29N 30°03' W 093°44'0 0.0
2018-Nov-05 02:02N 30°03' W 093°44'0 0.0
2018-Nov-05 01:59N 30°03' W 093°44'0 0.0
2018-Nov-05 01:29N 30°03' W 093°44'0 0.0
2018-Nov-05 00:59N 30°03' W 093°44'0 0.0
2018-Nov-05 00:29N 30°03' W 093°44'0 0.0
2018-Nov-04 23:44N 30°03' W 093°44'0 0.0
2018-Nov-04 23:26N 30°03' W 093°44'0 0.0
2018-Nov-04 22:56N 30°03' W 093°44'0 0.0
2018-Nov-04 22:26N 30°03' W 093°44'0 0.0
2018-Nov-04 21:56N 30°03' W 093°44'0 0.0
2018-Nov-04 21:26N 30°03' W 093°44'0 0.0
2018-Nov-04 21:02N 30°03' W 093°44'0 0.0
2018-Nov-04 20:56N 30°03' W 093°44'0 0.0
2018-Nov-04 20:26N 30°03' W 093°44'0 0.0
2018-Nov-04 20:02N 30°03' W 093°44'0 0.0
2018-Nov-04 19:59N 30°03' W 093°44'0 0.0
2018-Nov-04 19:26N 30°03' W 093°44'0 0.0
2018-Nov-04 19:02N 30°03' W 093°44'0 0.0
2018-Nov-04 18:59N 30°03' W 093°44'0 0.0
2018-Nov-04 18:29N 30°03' W 093°44'0 0.0
2018-Nov-04 18:02N 30°03' W 093°44'0 0.0
2018-Nov-04 17:59N 30°03' W 093°44'0 0.0
2018-Nov-04 17:20N 30°03' W 093°44'0 0.0
2018-Nov-04 16:53N 30°03' W 093°44'0 0.0
2018-Nov-04 16:29N 30°03' W 093°44'0 0.0
2018-Nov-04 16:02N 30°03' W 093°44'0 0.0
2018-Nov-04 15:56N 30°03' W 093°44'0 0.0
2018-Nov-04 15:29N 30°03' W 093°44'0 0.0
2018-Nov-04 15:02N 30°03' W 093°44'0 0.0
2018-Nov-04 14:53N 30°03' W 093°44'0 0.0
2018-Nov-04 14:29N 30°03' W 093°44'0 0.0
2018-Nov-04 13:59N 30°03' W 093°44'0 0.0
2018-Nov-04 13:26N 30°03' W 093°44'0 0.0
2018-Nov-04 13:02N 30°03' W 093°44'0 0.1
2018-Nov-04 12:56N 30°03' W 093°44'0 0.0
2018-Nov-04 12:26N 30°03' W 093°44'0 0.0
2018-Nov-04 12:02N 30°03' W 093°44'0 0.0
2018-Nov-04 11:59N 30°03' W 093°44'0 0.0
2018-Nov-04 11:29N 30°03' W 093°44'0 0.0
2018-Nov-04 11:02N 30°03' W 093°44'0 0.1
2018-Nov-04 10:59N 30°03' W 093°44'0 0.0
2018-Nov-04 10:29N 30°03' W 093°44'0 0.0
2018-Nov-04 10:02N 30°03' W 093°44'0 0.0
2018-Nov-04 09:59N 30°03' W 093°44'0 0.0
2018-Nov-04 09:29N 30°03' W 093°44'0 0.0
2018-Nov-04 09:02N 30°03' W 093°44'0 0.0
2018-Nov-04 08:59N 30°03' W 093°44'0 0.0
2018-Nov-04 08:29N 30°03' W 093°44'0 0.0
2018-Nov-04 08:02N 30°03' W 093°44'0 0.0
2018-Nov-04 07:59N 30°03' W 093°44'0 0.0
2018-Nov-04 07:29N 30°03' W 093°44'0 0.0
2018-Nov-04 07:02N 30°03' W 093°44'0 0.0
2018-Nov-04 06:59N 30°03' W 093°44'0 0.0
2018-Nov-04 06:29N 30°03' W 093°44'0 0.0
2018-Nov-04 05:59N 30°03' W 093°44'0 0.0
2018-Nov-04 05:29N 30°03' W 093°44'0 0.0
2018-Nov-04 04:59N 30°03' W 093°44'0 0.0
2018-Nov-04 04:29N 30°03' W 093°44'0 0.0
2018-Nov-04 04:02N 30°03' W 093°44'0 0.1
2018-Nov-04 03:56N 30°03' W 093°44'0 0.0
2018-Nov-04 03:26N 30°03' W 093°44'0 0.0
2018-Nov-04 03:02N 30°03' W 093°44'0 0.0
2018-Nov-04 02:59N 30°03' W 093°44'0 0.0
2018-Nov-04 02:29N 30°03' W 093°44'0 0.0
2018-Nov-04 02:02N 30°03' W 093°44'0 0.0
2018-Nov-04 01:56N 30°03' W 093°44'0 0.0
2018-Nov-04 01:26N 30°03' W 093°44'1 1.7
2018-Nov-04 01:00N 30°04' W 093°45'0 0.0
2018-Nov-04 00:27N 30°04' W 093°45'0 0.0
2018-Nov-04 00:03N 30°04' W 093°45'0 0.1
2018-Nov-03 23:54N 30°04' W 093°45'0 0.0
2018-Nov-03 23:30N 30°04' W 093°45'1 1.6
2018-Nov-03 23:03N 30°03' W 093°44'0 0.1
2018-Nov-03 23:00N 30°03' W 093°44'0 0.0
2018-Nov-03 22:30N 30°03' W 093°44'0 0.0
2018-Nov-03 20:30N 30°03' W 093°44'0 0.0
2018-Nov-03 20:03N 30°03' W 093°44'0 0.0
2018-Nov-03 20:00N 30°03' W 093°44'0 0.0
2018-Nov-03 19:30N 30°03' W 093°44'0 0.0
2018-Nov-03 18:57N 30°03' W 093°44'0 0.0
2018-Nov-03 18:21N 30°03' W 093°44'0 0.0
2018-Nov-03 18:00N 30°03' W 093°44'0 0.0
2018-Nov-03 17:30N 30°03' W 093°44'0 0.0
2018-Nov-03 17:03N 30°03' W 093°44'0 0.0
2018-Nov-03 16:39N 30°03' W 093°44'0 0.0
2018-Nov-03 16:27N 30°03' W 093°44'0 0.0
2018-Nov-03 16:00N 30°03' W 093°44'0 0.0
2018-Nov-03 15:27N 30°03' W 093°44'0 0.0
2018-Nov-03 14:54N 30°03' W 093°44'0 0.0
2018-Nov-03 14:24N 30°03' W 093°44'0 0.0
2018-Nov-03 14:03N 30°03' W 093°44'0 0.1
2018-Nov-03 13:57N 30°03' W 093°44'0 0.0
2018-Nov-03 13:27N 30°03' W 093°44'0 0.1
2018-Nov-03 13:03N 30°03' W 093°44'0 5.4
2018-Nov-03 13:01N 30°04' W 093°44'0 0.9
2018-Nov-03 12:30N 30°04' W 093°45'1 1.5
2018-Nov-03 12:01N 30°03' W 093°44'0 0.0
2018-Nov-03 11:58N 30°03' W 093°44'0 0.0
2018-Nov-03 11:28N 30°03' W 093°44'0 0.0
2018-Nov-03 11:01N 30°03' W 093°44'0 0.0
2018-Nov-03 10:58N 30°03' W 093°44'0 0.0
2018-Nov-03 10:28N 30°03' W 093°44'0 0.0
2018-Nov-03 10:01N 30°03' W 093°44'0 0.0
2018-Nov-03 09:58N 30°03' W 093°44'0 0.0
2018-Nov-03 09:28N 30°03' W 093°44'0 0.0
2018-Nov-03 09:01N 30°03' W 093°44'0 0.1
2018-Nov-03 08:58N 30°03' W 093°44'0 0.0
2018-Nov-03 08:28N 30°03' W 093°44'0 0.0
2018-Nov-03 08:01N 30°03' W 093°44'0 0.1
2018-Nov-03 07:58N 30°03' W 093°44'0 0.0
2018-Nov-03 07:25N 30°03' W 093°44'0 0.0
2018-Nov-03 07:01N 30°03' W 093°44'0 0.0
2018-Nov-03 06:58N 30°03' W 093°44'0 0.0
2018-Nov-03 06:28N 30°03' W 093°44'0 0.0
2018-Nov-03 05:55N 30°03' W 093°44'0 0.0
2018-Nov-03 05:28N 30°03' W 093°44'0 0.0
2018-Nov-03 04:58N 30°03' W 093°44'0 0.0
2018-Nov-03 04:28N 30°03' W 093°44'0 0.0
2018-Nov-03 04:01N 30°03' W 093°44'0 0.2
2018-Nov-03 03:58N 30°03' W 093°44'0 0.0
2018-Nov-03 03:28N 30°03' W 093°44'0 0.0
2018-Nov-03 03:01N 30°03' W 093°44'0 0.1
2018-Nov-03 02:58N 30°03' W 093°44'0 0.0
2018-Nov-03 02:28N 30°03' W 093°44'0 0.0
2018-Nov-03 02:01N 30°03' W 093°44'0 0.0
2018-Nov-03 01:58N 30°03' W 093°44'0 0.0
2018-Nov-03 01:28N 30°03' W 093°44'0 0.0
2018-Nov-03 01:01N 30°03' W 093°44'0 0.1
2018-Nov-03 00:58N 30°03' W 093°44'0 0.0
2018-Nov-03 00:22N 30°03' W 093°44'0 0.0
2018-Nov-03 00:01N 30°03' W 093°44'0 0.1
2018-Nov-02 23:58N 30°03' W 093°44'0 0.0
2018-Nov-02 23:28N 30°03' W 093°44'0 0.0
2018-Nov-02 23:02N 30°03' W 093°44'0 0.0
2018-Nov-02 22:59N 30°03' W 093°44'0 0.0
2018-Nov-02 22:29N 30°03' W 093°44'0 0.0
2018-Nov-02 21:59N 30°03' W 093°44'0 0.0
2018-Nov-02 21:11N 30°03' W 093°44'0 0.0
2018-Nov-02 20:53N 30°03' W 093°44'0 0.0
2018-Nov-02 20:29N 30°03' W 093°44'0 0.0
2018-Nov-02 19:35N 30°03' W 093°44'0 0.0
2018-Nov-02 19:23N 30°03' W 093°44'0 0.0
2018-Nov-02 18:53N 30°03' W 093°44'0 0.0
2018-Nov-02 18:29N 30°03' W 093°44'0 0.0
2018-Nov-02 17:59N 30°03' W 093°44'0 0.0
2018-Nov-02 17:29N 30°03' W 093°44'0 0.0
2018-Nov-02 16:59N 30°03' W 093°44'0 0.0
2018-Nov-02 16:29N 30°03' W 093°44'0 0.0
2018-Nov-02 16:02N 30°03' W 093°44'0 0.0
2018-Nov-02 15:56N 30°03' W 093°44'0 0.0
2018-Nov-02 15:29N 30°03' W 093°44'0 0.0
2018-Nov-02 14:50N 30°03' W 093°44'0 0.0
2018-Nov-02 13:59N 30°03' W 093°44'0 0.0
2018-Nov-02 13:29N 30°03' W 093°44'0 0.0
2018-Nov-02 13:02N 30°03' W 093°44'0 0.0
2018-Nov-02 12:59N 30°03' W 093°44'0 0.0
2018-Nov-02 12:23N 30°03' W 093°44'0 0.0
2018-Nov-02 11:50N 30°03' W 093°44'0 0.0
2018-Nov-02 11:29N 30°03' W 093°44'0 0.0
2018-Nov-02 11:02N 30°03' W 093°44'0 0.0
2018-Nov-02 10:59N 30°03' W 093°44'0 0.0
2018-Nov-02 10:29N 30°03' W 093°44'0 0.0
2018-Nov-02 10:02N 30°03' W 093°44'0 0.0
2018-Nov-02 09:59N 30°03' W 093°44'0 0.0
2018-Nov-02 09:28N 30°03' W 093°44'0 0.0
2018-Nov-02 09:01N 30°03' W 093°44'0 0.0
2018-Nov-02 08:55N 30°03' W 093°44'0 0.0
2018-Nov-02 08:28N 30°03' W 093°44'0 0.0
2018-Nov-02 08:01N 30°03' W 093°44'0 0.0
2018-Nov-02 07:58N 30°03' W 093°44'0 0.0
2018-Nov-02 07:28N 30°03' W 093°44'0 0.0
2018-Nov-02 07:01N 30°03' W 093°44'0 0.0
2018-Nov-02 06:55N 30°03' W 093°44'0 0.0
2018-Nov-02 06:28N 30°03' W 093°44'0 0.0
2018-Nov-02 06:01N 30°03' W 093°44'0 0.1
2018-Nov-02 05:58N 30°03' W 093°44'0 0.0
2018-Nov-02 05:28N 30°03' W 093°44'0 0.0
2018-Nov-02 05:01N 30°03' W 093°44'0 0.0
2018-Nov-02 04:49N 30°03' W 093°44'0 0.0
2018-Nov-02 04:28N 30°03' W 093°44'0 0.0
2018-Nov-02 04:01N 30°03' W 093°44'0 0.0
2018-Nov-02 03:58N 30°03' W 093°44'0 0.0
2018-Nov-02 03:28N 30°03' W 093°44'0 0.0
2018-Nov-02 03:01N 30°03' W 093°44'0 0.0
2018-Nov-02 02:49N 30°03' W 093°44'0 0.0
2018-Nov-02 02:25N 30°03' W 093°44'0 0.0
2018-Nov-02 02:01N 30°03' W 093°44'0 0.0
2018-Nov-02 01:55N 30°03' W 093°44'0 0.0
2018-Nov-02 01:25N 30°03' W 093°44'0 0.0
2018-Nov-02 01:01N 30°03' W 093°44'0 0.0
2018-Nov-02 00:52N 30°03' W 093°44'0 0.0
2018-Nov-02 00:31N 30°03' W 093°44'0 0.0
2018-Nov-02 00:28N 30°03' W 093°44'0 0.0
2018-Nov-01 23:58N 30°03' W 093°44'0 0.0
2018-Nov-01 23:19N 30°03' W 093°44'0 0.0
2018-Nov-01 22:34N 30°03' W 093°44'0 0.0
2018-Nov-01 22:16N 30°03' W 093°44'0 0.0
2018-Nov-01 21:58N 30°03' W 093°44'0 0.0
2018-Nov-01 21:04N 30°03' W 093°44'0 2.5
2018-Nov-01 21:03N 30°03' W 093°44'1 5.7
2018-Nov-01 20:58N 30°04' W 093°45'0 0.1
2018-Nov-01 20:29N 30°04' W 093°45'0 0.7
2018-Nov-01 19:45N 30°03' W 093°44'1 2.6
2018-Nov-01 19:29N 30°04' W 093°45'1 1.2
2018-Nov-01 18:52N 30°03' W 093°44'0 0.0
2018-Nov-01 18:16N 30°03' W 093°44'0 0.1
2018-Nov-01 16:43N 30°03' W 093°44'0 0.0
2018-Nov-01 16:18N 30°03' W 093°44'0 0.0
2018-Nov-01 16:01N 30°03' W 093°44'0 0.0
2018-Nov-01 15:25N 30°03' W 093°44'0 0.0
2018-Nov-01 14:57N 30°03' W 093°44'0 0.0
2018-Nov-01 14:31N 30°03' W 093°44'0 0.0
2018-Nov-01 14:01N 30°03' W 093°44'0 0.0
2018-Nov-01 13:28N 30°03' W 093°44'0 0.0
2018-Nov-01 13:03N 30°03' W 093°44'0 0.0
2018-Nov-01 13:00N 30°03' W 093°44'0 0.0
2018-Nov-01 12:31N 30°03' W 093°44'0 0.0
2018-Nov-01 12:04N 30°03' W 093°44'0 0.0
2018-Nov-01 11:52N 30°03' W 093°44'0 0.0
2018-Nov-01 11:31N 30°03' W 093°44'0 0.0
2018-Nov-01 11:03N 30°03' W 093°44'0 0.1
2018-Nov-01 11:00N 30°03' W 093°44'0 0.0
2018-Nov-01 10:21N 30°03' W 093°44'0 0.0
2018-Nov-01 10:03N 30°03' W 093°44'0 0.1
2018-Nov-01 09:57N 30°03' W 093°44'0 0.0
2018-Nov-01 09:24N 30°03' W 093°44'0 0.0
2018-Nov-01 09:03N 30°03' W 093°44'0 0.0
2018-Nov-01 08:57N 30°03' W 093°44'0 0.0
2018-Nov-01 08:30N 30°03' W 093°44'0 0.0
2018-Nov-01 08:00N 30°03' W 093°44'0 0.0
2018-Nov-01 07:30N 30°03' W 093°44'0 0.0
2018-Nov-01 07:03N 30°03' W 093°44'0 0.0
2018-Nov-01 07:00N 30°03' W 093°44'0 0.0
2018-Nov-01 06:27N 30°03' W 093°44'0 0.0
2018-Nov-01 06:03N 30°03' W 093°44'0 0.0
2018-Nov-01 06:00N 30°03' W 093°44'0 0.0
2018-Nov-01 05:30N 30°03' W 093°44'0 0.0
2018-Nov-01 05:03N 30°03' W 093°44'0 0.0
2018-Nov-01 04:57N 30°03' W 093°44'0 0.0
2018-Nov-01 03:51N 30°03' W 093°44'0 0.0
2018-Nov-01 03:27N 30°03' W 093°44'0 0.0
2018-Nov-01 02:51N 30°03' W 093°44'  
Track history (hours):
 
Tides and Currents Weather Stations Pressure Air Temp Water Temp Dewpoint Dewpoint Depression Visibility Wind Speed Wind Dir Waves Ship Positions

Capt Al Devall

Owner: J & J DEVALL MARITIME MARINE OPERATORS, Sulphur, LA. More information available from US FCC via Universal Licensing System and Coast Guard Vessel Documentation Center.

Last reported at 2018-Nov-11 02:32 UTC. Time now 2018-Nov-14 05:29 UTC.
Position N 30°04' W 093°45'.

; draft 3 m.

Type: Towing. MMSI: 366972270.

Date/timePositionNaut miles runAvg speedWind from/ knotsBaromVisibWave heightAir tempDewpointWater temp
2018-Nov-11 02:32N 30°04' W 093°45'0 0.0
2018-Nov-11 01:47N 30°04' W 093°45'0 0.0
2018-Nov-11 00:47N 30°04' W 093°45'0 0.0
2018-Nov-11 00:29N 30°04' W 093°45'1 0.5
2018-Nov-10 21:34N 30°03' W 093°44'0 7.3
2018-Nov-10 21:31N 30°03' W 093°43'1 2.5
2018-Nov-10 21:00N 30°04' W 093°43'0 0.0
2018-Nov-10 20:27N 30°04' W 093°43'0 0.0
2018-Nov-10 20:00N 30°04' W 093°43'0 0.0
2018-Nov-10 19:30N 30°04' W 093°43'0 0.0
2018-Nov-10 19:00N 30°04' W 093°43'0 0.0
2018-Nov-10 18:30N 30°04' W 093°43'0 0.0
2018-Nov-10 18:00N 30°04' W 093°43'0 0.0
2018-Nov-10 17:24N 30°04' W 093°43'0 0.0
2018-Nov-10 17:00N 30°04' W 093°43'0 0.0
2018-Nov-10 16:30N 30°04' W 093°43'0 0.0
2018-Nov-10 15:57N 30°04' W 093°43'0 0.0
2018-Nov-10 15:27N 30°04' W 093°43'0 0.0
2018-Nov-10 15:00N 30°04' W 093°43'0 0.0
2018-Nov-10 14:27N 30°04' W 093°43'0 0.0
2018-Nov-10 14:00N 30°04' W 093°43'0 0.0
2018-Nov-10 13:30N 30°04' W 093°43'0 0.0
2018-Nov-10 13:00N 30°04' W 093°43'0 0.0
2018-Nov-10 12:30N 30°04' W 093°43'0 0.0
2018-Nov-10 12:00N 30°04' W 093°43'0 0.0
2018-Nov-10 11:27N 30°04' W 093°43'1 2.6
2018-Nov-10 11:02N 30°03' W 093°43'1 0.6
2018-Nov-10 09:30N 30°03' W 093°44'0 0.0
2018-Nov-10 08:00N 30°03' W 093°44'0 0.0
2018-Nov-10 07:00N 30°03' W 093°44'0 0.0
2018-Nov-10 04:39N 30°03' W 093°44'0 0.0
2018-Nov-10 01:19N 30°03' W 093°44'0 0.1
2018-Nov-10 00:57N 30°03' W 093°44'0 0.0
2018-Nov-10 00:27N 30°03' W 093°44'0 0.1
2018-Nov-09 23:34N 30°03' W 093°44'0 0.1
2018-Nov-09 23:24N 30°03' W 093°44'1 3.8
2018-Nov-09 23:02N 30°02' W 093°44'2 4.6
2018-Nov-09 22:32N 30°00' W 093°46'2 4.7
2018-Nov-09 22:02N 29°59' W 093°48'3 5.9
2018-Nov-09 21:32N 29°58' W 093°51'3 5.7
2018-Nov-09 21:02N 29°55' W 093°53'3 5.6
2018-Nov-09 20:32N 29°53' W 093°55'3 5.3
2018-Nov-09 20:02N 29°51' W 093°57'2 4.3
2018-Nov-09 19:32N 29°49' W 093°58'2 3.7
2018-Nov-09 19:02N 29°48' W 094°00'3 6.0
2018-Nov-09 18:32N 29°46' W 094°03'3 6.1
2018-Nov-09 18:02N 29°44' W 094°05'3 6.0
2018-Nov-09 17:32N 29°42' W 094°08'3 5.7
2018-Nov-09 17:02N 29°41' W 094°11'3 5.4
2018-Nov-09 16:32N 29°40' W 094°14'3 5.1
2018-Nov-09 16:02N 29°39' W 094°16'2 5.0
2018-Nov-09 15:32N 29°38' W 094°19'2 4.9
2018-Nov-09 15:02N 29°37' W 094°22'2 4.5
2018-Nov-09 14:32N 29°36' W 094°24'2 4.2
2018-Nov-09 13:59N 29°34' W 094°26'21 3.1
2018-Nov-09 07:15N 29°23' W 094°46'2 6.0
2018-Nov-09 06:59N 29°22' W 094°47'8 6.8
2018-Nov-09 05:51N 29°29' W 094°52'2 6.7
2018-Nov-09 05:32N 29°31' W 094°53'3 6.6
2018-Nov-09 05:03N 29°33' W 094°55'3 6.8
2018-Nov-09 04:32N 29°36' W 094°57'3 6.2
2018-Nov-09 04:02N 29°37' W 095°01'0 1.0
2018-Nov-09 03:32N 29°36' W 095°01'0 0.0
2018-Nov-09 03:02N 29°36' W 095°01'0 0.0
2018-Nov-09 02:32N 29°36' W 095°01'0 0.0
2018-Nov-09 02:02N 29°36' W 095°01'0 0.0
2018-Nov-09 01:29N 29°36' W 095°01'0 0.0
2018-Nov-09 01:01N 29°36' W 095°01'0 0.5
2018-Nov-09 00:32N 29°37' W 095°01'0 0.0
2018-Nov-09 00:02N 29°37' W 095°01'0 0.4
2018-Nov-08 23:32N 29°37' W 095°01'0 0.4
2018-Nov-08 23:02N 29°37' W 095°01'0 0.5
2018-Nov-08 22:32N 29°36' W 095°01'0 0.0
2018-Nov-08 22:02N 29°36' W 095°01'0 0.0
2018-Nov-08 21:29N 29°36' W 095°01'0 0.0
2018-Nov-08 21:02N 29°36' W 095°01'0 0.0
2018-Nov-08 20:32N 29°36' W 095°01'0 0.0
2018-Nov-08 20:02N 29°36' W 095°01'0 0.0
2018-Nov-08 19:32N 29°36' W 095°01'0 0.0
2018-Nov-08 19:02N 29°36' W 095°01'0 0.0
2018-Nov-08 18:32N 29°36' W 095°01'0 0.0
2018-Nov-08 18:02N 29°36' W 095°01'0 0.0
2018-Nov-08 17:32N 29°36' W 095°01'0 0.0
2018-Nov-08 17:02N 29°36' W 095°01'0 0.0
2018-Nov-08 16:32N 29°36' W 095°01'0 0.0
2018-Nov-08 16:02N 29°36' W 095°01'0 0.0
2018-Nov-08 15:32N 29°36' W 095°01'0 0.0
2018-Nov-08 15:02N 29°36' W 095°01'0 0.0
2018-Nov-08 14:32N 29°36' W 095°01'0 0.0
2018-Nov-08 14:02N 29°36' W 095°01'0 0.0
2018-Nov-08 13:32N 29°36' W 095°01'0 0.0
2018-Nov-08 13:02N 29°36' W 095°01'0 0.0
2018-Nov-08 12:32N 29°36' W 095°01'0 0.0
2018-Nov-08 12:02N 29°36' W 095°01'0 0.0
2018-Nov-08 10:35N 29°36' W 095°01'0 0.0
2018-Nov-08 10:29N 29°36' W 095°01'0 0.0
2018-Nov-08 10:02N 29°36' W 095°01'0 0.0
2018-Nov-08 09:32N 29°36' W 095°01'0 0.0
2018-Nov-08 08:59N 29°36' W 095°01'0 0.0
2018-Nov-08 08:29N 29°36' W 095°01'0 0.0
2018-Nov-08 08:02N 29°36' W 095°01'0 0.0
2018-Nov-08 07:32N 29°36' W 095°01'0 0.0
2018-Nov-08 07:02N 29°36' W 095°01'0 0.0
2018-Nov-08 06:32N 29°36' W 095°01'0 0.1
2018-Nov-08 06:01N 29°37' W 095°01'0 0.5
2018-Nov-08 05:31N 29°37' W 095°01'2 4.7
2018-Nov-08 05:03N 29°37' W 094°59'3 5.7
2018-Nov-08 04:31N 29°35' W 094°56'3 6.7
2018-Nov-08 04:02N 29°32' W 094°54'6 6.7
2018-Nov-08 03:07N 29°27' W 094°50'1 6.7
2018-Nov-08 03:02N 29°26' W 094°50'4 7.1
2018-Nov-08 02:32N 29°23' W 094°49'2 4.7
2018-Nov-08 02:02N 29°23' W 094°46'4 5.7
2018-Nov-08 01:18N 29°26' W 094°42'3 3.7
2018-Nov-08 00:35N 29°28' W 094°40'5 5.1
2018-Nov-07 23:39N 29°29' W 094°35'1 5.3
2018-Nov-07 23:25N 29°30' W 094°34'2 5.5
2018-Nov-07 22:59N 29°31' W 094°31'4 5.2
2018-Nov-07 22:13N 29°34' W 094°28'1 5.0
2018-Nov-07 22:02N 29°34' W 094°27'1 2.3
2018-Nov-07 21:32N 29°34' W 094°25'2 4.1
2018-Nov-07 21:02N 29°36' W 094°24'2 3.0
2018-Nov-07 20:18N 29°36' W 094°22'1 4.5
2018-Nov-07 20:02N 29°37' W 094°21'2 5.0
2018-Nov-07 19:32N 29°38' W 094°18'3 5.2
2018-Nov-07 19:02N 29°39' W 094°15'3 5.1
2018-Nov-07 18:32N 29°41' W 094°13'3 5.0
2018-Nov-07 18:02N 29°41' W 094°10'2 4.7
2018-Nov-07 17:32N 29°43' W 094°08'2 4.9
2018-Nov-07 17:02N 29°44' W 094°05'2 4.9
2018-Nov-07 16:32N 29°46' W 094°03'2 4.8
2018-Nov-07 16:02N 29°47' W 094°01'2 4.5
2018-Nov-07 15:32N 29°49' W 093°59'1 2.5
2018-Nov-07 15:02N 29°49' W 093°58'0 0.0
2018-Nov-07 14:31N 29°49' W 093°58'0 0.0
2018-Nov-07 14:01N 29°49' W 093°58'0 0.0
2018-Nov-07 13:31N 29°49' W 093°58'0 0.0
2018-Nov-07 13:01N 29°49' W 093°58'0 0.0
2018-Nov-07 12:31N 29°49' W 093°58'0 0.0
2018-Nov-07 12:01N 29°49' W 093°58'0 0.0
2018-Nov-07 11:31N 29°49' W 093°58'0 0.0
2018-Nov-07 11:01N 29°49' W 093°58'0 0.0
2018-Nov-07 10:31N 29°49' W 093°58'0 0.0
2018-Nov-07 10:01N 29°49' W 093°58'0 0.0
2018-Nov-07 09:31N 29°49' W 093°58'0 0.0
2018-Nov-07 09:01N 29°49' W 093°58'0 0.0
2018-Nov-07 08:31N 29°49' W 093°58'0 0.0
2018-Nov-07 08:01N 29°49' W 093°58'0 0.0
2018-Nov-07 07:31N 29°49' W 093°58'0 0.0
2018-Nov-07 07:01N 29°49' W 093°58'0 0.0
2018-Nov-07 06:31N 29°49' W 093°58'0 0.0
2018-Nov-07 06:01N 29°49' W 093°58'0 0.0
2018-Nov-07 05:31N 29°49' W 093°58'0 0.0
2018-Nov-07 05:01N 29°49' W 093°58'0 0.0
2018-Nov-07 04:31N 29°49' W 093°58'17 3.4
2018-Nov-06 23:30N 30°02' W 093°44'2 3.7
2018-Nov-06 23:01N 30°03' W 093°44'0 0.9
2018-Nov-06 22:58N 30°03' W 093°44'0 0.1
2018-Nov-06 21:53N 30°03' W 093°44'0 0.0
2018-Nov-06 21:29N 30°03' W 093°44'0 0.0
2018-Nov-06 21:02N 30°03' W 093°44'0 0.0
2018-Nov-06 20:53N 30°03' W 093°44'0 0.0
2018-Nov-06 20:26N 30°03' W 093°44'0 0.0
2018-Nov-06 20:02N 30°03' W 093°44'0 0.0
2018-Nov-06 19:59N 30°03' W 093°44'0 0.0
2018-Nov-06 19:26N 30°03' W 093°44'0 0.0
2018-Nov-06 19:02N 30°03' W 093°44'0 0.1
2018-Nov-06 18:59N 30°03' W 093°44'0 0.0
2018-Nov-06 18:29N 30°03' W 093°44'0 0.0
2018-Nov-06 18:02N 30°03' W 093°44'0 0.0
2018-Nov-06 17:59N 30°03' W 093°44'0 0.0
2018-Nov-06 17:29N 30°03' W 093°44'0 0.0
2018-Nov-06 16:44N 30°03' W 093°44'0 0.0
2018-Nov-06 16:29N 30°03' W 093°44'0 0.0
2018-Nov-06 15:59N 30°03' W 093°44'0 0.0
2018-Nov-06 15:29N 30°03' W 093°44'0 0.0
2018-Nov-06 14:56N 30°03' W 093°44'0 0.0
2018-Nov-06 14:29N 30°03' W 093°44'0 0.0
2018-Nov-06 14:02N 30°03' W 093°44'0 0.1
2018-Nov-06 13:59N 30°03' W 093°44'0 0.0
2018-Nov-06 13:26N 30°03' W 093°44'0 0.0
2018-Nov-06 13:02N 30°03' W 093°44'0 0.0
2018-Nov-06 12:56N 30°03' W 093°44'0 0.0
2018-Nov-06 12:29N 30°03' W 093°44'0 0.0
2018-Nov-06 11:59N 30°03' W 093°44'0 0.0
2018-Nov-06 11:29N 30°03' W 093°44'0 0.0
2018-Nov-06 10:56N 30°03' W 093°44'0 0.0
2018-Nov-06 10:29N 30°03' W 093°44'0 0.0
2018-Nov-06 10:02N 30°03' W 093°44'0 0.0
2018-Nov-06 09:56N 30°03' W 093°44'0 0.0
2018-Nov-06 09:23N 30°03' W 093°44'0 0.0
2018-Nov-06 09:02N 30°03' W 093°44'0 0.0
2018-Nov-06 08:59N 30°03' W 093°44'0 0.0
2018-Nov-06 08:29N 30°03' W 093°44'0 0.0
2018-Nov-06 08:02N 30°03' W 093°44'0 0.0
2018-Nov-06 07:56N 30°03' W 093°44'0 0.0
2018-Nov-06 07:26N 30°03' W 093°44'0 0.0
2018-Nov-06 07:02N 30°03' W 093°44'0 0.0
2018-Nov-06 06:59N 30°03' W 093°44'0 0.0
2018-Nov-06 06:29N 30°03' W 093°44'0 0.0
2018-Nov-06 06:02N 30°03' W 093°44'0 0.0
2018-Nov-06 05:59N 30°03' W 093°44'0 0.0
2018-Nov-06 05:29N 30°03' W 093°44'0 0.0
2018-Nov-06 05:02N 30°03' W 093°44'0 0.0
2018-Nov-06 04:59N 30°03' W 093°44'0 0.0
2018-Nov-06 04:29N 30°03' W 093°44'0 0.0
2018-Nov-06 04:02N 30°03' W 093°44'0 0.0
2018-Nov-06 03:59N 30°03' W 093°44'0 0.0
2018-Nov-06 03:29N 30°03' W 093°44'0 0.0
2018-Nov-06 03:02N 30°03' W 093°44'0 0.0
2018-Nov-06 02:56N 30°03' W 093°44'0 0.0
2018-Nov-06 02:23N 30°03' W 093°44'0 0.0
2018-Nov-06 01:47N 30°03' W 093°44'0 0.0
2018-Nov-06 01:26N 30°03' W 093°44'0 0.0
2018-Nov-06 00:29N 30°03' W 093°44'0 0.0
2018-Nov-05 23:28N 30°03' W 093°44'0 0.0
2018-Nov-05 23:01N 30°03' W 093°44'0 0.0
2018-Nov-05 22:58N 30°03' W 093°44'0 0.0
2018-Nov-05 22:28N 30°03' W 093°44'0 0.0
2018-Nov-05 21:58N 30°03' W 093°44'0 0.1
2018-Nov-05 21:30N 30°03' W 093°44'0 0.1
2018-Nov-05 21:03N 30°03' W 093°44'0 0.0
2018-Nov-05 20:57N 30°03' W 093°44'0 0.0
2018-Nov-05 20:30N 30°03' W 093°44'0 0.0
2018-Nov-05 20:03N 30°03' W 093°44'0 0.0
2018-Nov-05 20:00N 30°03' W 093°44'0 0.0
2018-Nov-05 19:30N 30°03' W 093°44'0 0.0
2018-Nov-05 19:03N 30°03' W 093°44'0 0.0
2018-Nov-05 18:51N 30°03' W 093°44'0 0.0
2018-Nov-05 18:27N 30°03' W 093°44'0 0.0
2018-Nov-05 18:03N 30°03' W 093°44'0 0.0
2018-Nov-05 18:00N 30°03' W 093°44'0 0.0
2018-Nov-05 17:30N 30°03' W 093°44'0 0.0
2018-Nov-05 17:03N 30°03' W 093°44'0 0.0
2018-Nov-05 17:00N 30°03' W 093°44'0 0.0
2018-Nov-05 16:30N 30°03' W 093°44'0 0.0
2018-Nov-05 16:03N 30°03' W 093°44'0 0.0
2018-Nov-05 16:00N 30°03' W 093°44'0 0.0
2018-Nov-05 15:30N 30°03' W 093°44'0 0.0
2018-Nov-05 15:03N 30°03' W 093°44'0 0.0
2018-Nov-05 14:57N 30°03' W 093°44'0 0.0
2018-Nov-05 14:30N 30°03' W 093°44'0 0.0
2018-Nov-05 13:57N 30°03' W 093°44'0 0.0
2018-Nov-05 13:30N 30°03' W 093°44'0 0.0
2018-Nov-05 13:03N 30°03' W 093°44'0 0.0
2018-Nov-05 13:00N 30°03' W 093°44'0 0.0
2018-Nov-05 12:30N 30°03' W 093°44'0 0.0
2018-Nov-05 12:03N 30°03' W 093°44'0 0.0
2018-Nov-05 11:58N 30°03' W 093°44'0 0.0
2018-Nov-05 11:29N 30°03' W 093°44'0 0.0
2018-Nov-05 11:02N 30°03' W 093°44'0 0.0
2018-Nov-05 10:59N 30°03' W 093°44'0 0.0
2018-Nov-05 10:26N 30°03' W 093°44'0 0.0
2018-Nov-05 10:02N 30°03' W 093°44'0 0.0
2018-Nov-05 09:59N 30°03' W 093°44'0 0.0
2018-Nov-05 09:23N 30°03' W 093°44'0 0.0
2018-Nov-05 09:02N 30°03' W 093°44'0 0.0
2018-Nov-05 08:56N 30°03' W 093°44'0 0.0
2018-Nov-05 08:29N 30°03' W 093°44'0 0.0
2018-Nov-05 08:02N 30°03' W 093°44'0 0.0
2018-Nov-05 07:59N 30°03' W 093°44'0 0.0
2018-Nov-05 07:26N 30°03' W 093°44'0 0.0
2018-Nov-05 06:59N 30°03' W 093°44'0 0.0
2018-Nov-05 06:29N 30°03' W 093°44'0 0.0
2018-Nov-05 06:02N 30°03' W 093°44'0 0.0
2018-Nov-05 05:59N 30°03' W 093°44'0 0.0
2018-Nov-05 05:29N 30°03' W 093°44'0 0.0
2018-Nov-05 05:02N 30°03' W 093°44'0 0.0
2018-Nov-05 04:56N 30°03' W 093°44'0 0.0
2018-Nov-05 04:29N 30°03' W 093°44'0 0.0
2018-Nov-05 04:02N 30°03' W 093°44'0 0.0
2018-Nov-05 03:56N 30°03' W 093°44'0 0.0
2018-Nov-05 03:29N 30°03' W 093°44'0 0.0
2018-Nov-05 02:56N 30°03' W 093°44'0 0.0
2018-Nov-05 02:29N 30°03' W 093°44'0 0.0
2018-Nov-05 02:02N 30°03' W 093°44'0 0.0
2018-Nov-05 01:59N 30°03' W 093°44'0 0.0
2018-Nov-05 01:29N 30°03' W 093°44'0 0.0
2018-Nov-05 00:59N 30°03' W 093°44'0 0.0
2018-Nov-05 00:29N 30°03' W 093°44'0 0.0
2018-Nov-04 23:44N 30°03' W 093°44'0 0.0
2018-Nov-04 23:26N 30°03' W 093°44'0 0.0
2018-Nov-04 22:56N 30°03' W 093°44'0 0.0
2018-Nov-04 22:26N 30°03' W 093°44'0 0.0
2018-Nov-04 21:56N 30°03' W 093°44'0 0.0
2018-Nov-04 21:26N 30°03' W 093°44'0 0.0
2018-Nov-04 21:02N 30°03' W 093°44'0 0.0
2018-Nov-04 20:56N 30°03' W 093°44'0 0.0
2018-Nov-04 20:26N 30°03' W 093°44'0 0.0
2018-Nov-04 20:02N 30°03' W 093°44'0 0.0
2018-Nov-04 19:59N 30°03' W 093°44'0 0.0
2018-Nov-04 19:26N 30°03' W 093°44'0 0.0
2018-Nov-04 19:02N 30°03' W 093°44'0 0.0
2018-Nov-04 18:59N 30°03' W 093°44'0 0.0
2018-Nov-04 18:29N 30°03' W 093°44'0 0.0
2018-Nov-04 18:02N 30°03' W 093°44'0 0.0
2018-Nov-04 17:59N 30°03' W 093°44'0 0.0
2018-Nov-04 17:20N 30°03' W 093°44'0 0.0
2018-Nov-04 16:53N 30°03' W 093°44'0 0.0
2018-Nov-04 16:29N 30°03' W 093°44'0 0.0
2018-Nov-04 16:02N 30°03' W 093°44'0 0.0
2018-Nov-04 15:56N 30°03' W 093°44'0 0.0
2018-Nov-04 15:29N 30°03' W 093°44'0 0.0
2018-Nov-04 15:02N 30°03' W 093°44'0 0.0
2018-Nov-04 14:53N 30°03' W 093°44'0 0.0
2018-Nov-04 14:29N 30°03' W 093°44'0 0.0
2018-Nov-04 13:59N 30°03' W 093°44'0 0.0
2018-Nov-04 13:26N 30°03' W 093°44'0 0.0
2018-Nov-04 13:02N 30°03' W 093°44'0 0.1
2018-Nov-04 12:56N 30°03' W 093°44'0 0.0
2018-Nov-04 12:26N 30°03' W 093°44'0 0.0
2018-Nov-04 12:02N 30°03' W 093°44'0 0.0
2018-Nov-04 11:59N 30°03' W 093°44'0 0.0
2018-Nov-04 11:29N 30°03' W 093°44'0 0.0
2018-Nov-04 11:02N 30°03' W 093°44'0 0.1
2018-Nov-04 10:59N 30°03' W 093°44'0 0.0
2018-Nov-04 10:29N 30°03' W 093°44'0 0.0
2018-Nov-04 10:02N 30°03' W 093°44'0 0.0
2018-Nov-04 09:59N 30°03' W 093°44'0 0.0
2018-Nov-04 09:29N 30°03' W 093°44'0 0.0
2018-Nov-04 09:02N 30°03' W 093°44'0 0.0
2018-Nov-04 08:59N 30°03' W 093°44'0 0.0
2018-Nov-04 08:29N 30°03' W 093°44'0 0.0
2018-Nov-04 08:02N 30°03' W 093°44'0 0.0
2018-Nov-04 07:59N 30°03' W 093°44'0 0.0
2018-Nov-04 07:29N 30°03' W 093°44'0 0.0
2018-Nov-04 07:02N 30°03' W 093°44'0 0.0
2018-Nov-04 06:59N 30°03' W 093°44'0 0.0
2018-Nov-04 06:29N 30°03' W 093°44'0 0.0
2018-Nov-04 05:59N 30°03' W 093°44'0 0.0
2018-Nov-04 05:29N 30°03' W 093°44'0 0.0
2018-Nov-04 04:59N 30°03' W 093°44'0 0.0
2018-Nov-04 04:29N 30°03' W 093°44'0 0.0
2018-Nov-04 04:02N 30°03' W 093°44'0 0.1
2018-Nov-04 03:56N 30°03' W 093°44'0 0.0
2018-Nov-04 03:26N 30°03' W 093°44'0 0.0
2018-Nov-04 03:02N 30°03' W 093°44'0 0.0
2018-Nov-04 02:59N 30°03' W 093°44'0 0.0
2018-Nov-04 02:29N 30°03' W 093°44'0 0.0
2018-Nov-04 02:02N 30°03' W 093°44'0 0.0
2018-Nov-04 01:56N 30°03' W 093°44'0 0.0
2018-Nov-04 01:26N 30°03' W 093°44'1 1.7
2018-Nov-04 01:00N 30°04' W 093°45'0 0.0
2018-Nov-04 00:27N 30°04' W 093°45'0 0.0
2018-Nov-04 00:03N 30°04' W 093°45'0 0.1
2018-Nov-03 23:54N 30°04' W 093°45'0 0.0
2018-Nov-03 23:30N 30°04' W 093°45'1 1.6
2018-Nov-03 23:03N 30°03' W 093°44'0 0.1
2018-Nov-03 23:00N 30°03' W 093°44'0 0.0
2018-Nov-03 22:30N 30°03' W 093°44'0 0.0
2018-Nov-03 20:30N 30°03' W 093°44'0 0.0
2018-Nov-03 20:03N 30°03' W 093°44'0 0.0
2018-Nov-03 20:00N 30°03' W 093°44'0 0.0
2018-Nov-03 19:30N 30°03' W 093°44'0 0.0
2018-Nov-03 18:57N 30°03' W 093°44'0 0.0
2018-Nov-03 18:21N 30°03' W 093°44'0 0.0
2018-Nov-03 18:00N 30°03' W 093°44'0 0.0
2018-Nov-03 17:30N 30°03' W 093°44'0 0.0
2018-Nov-03 17:03N 30°03' W 093°44'0 0.0
2018-Nov-03 16:39N 30°03' W 093°44'0 0.0
2018-Nov-03 16:27N 30°03' W 093°44'0 0.0
2018-Nov-03 16:00N 30°03' W 093°44'0 0.0
2018-Nov-03 15:27N 30°03' W 093°44'0 0.0
2018-Nov-03 14:54N 30°03' W 093°44'0 0.0
2018-Nov-03 14:24N 30°03' W 093°44'0 0.0
2018-Nov-03 14:03N 30°03' W 093°44'0 0.1
2018-Nov-03 13:57N 30°03' W 093°44'0 0.0
2018-Nov-03 13:27N 30°03' W 093°44'0 0.1
2018-Nov-03 13:03N 30°03' W 093°44'0 5.4
2018-Nov-03 13:01N 30°04' W 093°44'0 0.9
2018-Nov-03 12:30N 30°04' W 093°45'1 1.5
2018-Nov-03 12:01N 30°03' W 093°44'0 0.0
2018-Nov-03 11:58N 30°03' W 093°44'0 0.0
2018-Nov-03 11:28N 30°03' W 093°44'0 0.0
2018-Nov-03 11:01N 30°03' W 093°44'0 0.0
2018-Nov-03 10:58N 30°03' W 093°44'0 0.0
2018-Nov-03 10:28N 30°03' W 093°44'0 0.0
2018-Nov-03 10:01N 30°03' W 093°44'0 0.0
2018-Nov-03 09:58N 30°03' W 093°44'0 0.0
2018-Nov-03 09:28N 30°03' W 093°44'0 0.0
2018-Nov-03 09:01N 30°03' W 093°44'0 0.1
2018-Nov-03 08:58N 30°03' W 093°44'0 0.0
2018-Nov-03 08:28N 30°03' W 093°44'0 0.0
2018-Nov-03 08:01N 30°03' W 093°44'0 0.1
2018-Nov-03 07:58N 30°03' W 093°44'0 0.0
2018-Nov-03 07:25N 30°03' W 093°44'0 0.0
2018-Nov-03 07:01N 30°03' W 093°44'0 0.0
2018-Nov-03 06:58N 30°03' W 093°44'0 0.0
2018-Nov-03 06:28N 30°03' W 093°44'0 0.0
2018-Nov-03 05:55N 30°03' W 093°44'0 0.0
2018-Nov-03 05:28N 30°03' W 093°44'0 0.0
2018-Nov-03 04:58N 30°03' W 093°44'0 0.0
2018-Nov-03 04:28N 30°03' W 093°44'0 0.0
2018-Nov-03 04:01N 30°03' W 093°44'0 0.2
2018-Nov-03 03:58N 30°03' W 093°44'0 0.0
2018-Nov-03 03:28N 30°03' W 093°44'0 0.0
2018-Nov-03 03:01N 30°03' W 093°44'0 0.1
2018-Nov-03 02:58N 30°03' W 093°44'0 0.0
2018-Nov-03 02:28N 30°03' W 093°44'0 0.0
2018-Nov-03 02:01N 30°03' W 093°44'0 0.0
2018-Nov-03 01:58N 30°03' W 093°44'0 0.0
2018-Nov-03 01:28N 30°03' W 093°44'0 0.0
2018-Nov-03 01:01N 30°03' W 093°44'0 0.1
2018-Nov-03 00:58N 30°03' W 093°44'0 0.0
2018-Nov-03 00:22N 30°03' W 093°44'0 0.0
2018-Nov-03 00:01N 30°03' W 093°44'0 0.1
2018-Nov-02 23:58N 30°03' W 093°44'0 0.0
2018-Nov-02 23:28N 30°03' W 093°44'0 0.0
2018-Nov-02 23:02N 30°03' W 093°44'0 0.0
2018-Nov-02 22:59N 30°03' W 093°44'0 0.0
2018-Nov-02 22:29N 30°03' W 093°44'0 0.0
2018-Nov-02 21:59N 30°03' W 093°44'0 0.0
2018-Nov-02 21:11N 30°03' W 093°44'0 0.0
2018-Nov-02 20:53N 30°03' W 093°44'0 0.0
2018-Nov-02 20:29N 30°03' W 093°44'0 0.0
2018-Nov-02 19:35N 30°03' W 093°44'0 0.0
2018-Nov-02 19:23N 30°03' W 093°44'0 0.0
2018-Nov-02 18:53N 30°03' W 093°44'0 0.0
2018-Nov-02 18:29N 30°03' W 093°44'0 0.0
2018-Nov-02 17:59N 30°03' W 093°44'0 0.0
2018-Nov-02 17:29N 30°03' W 093°44'0 0.0
2018-Nov-02 16:59N 30°03' W 093°44'0 0.0
2018-Nov-02 16:29N 30°03' W 093°44'0 0.0
2018-Nov-02 16:02N 30°03' W 093°44'0 0.0
2018-Nov-02 15:56N 30°03' W 093°44'0 0.0
2018-Nov-02 15:29N 30°03' W 093°44'0 0.0
2018-Nov-02 14:50N 30°03' W 093°44'0 0.0
2018-Nov-02 13:59N 30°03' W 093°44'0 0.0
2018-Nov-02 13:29N 30°03' W 093°44'0 0.0
2018-Nov-02 13:02N 30°03' W 093°44'0 0.0
2018-Nov-02 12:59N 30°03' W 093°44'0 0.0
2018-Nov-02 12:23N 30°03' W 093°44'0 0.0
2018-Nov-02 11:50N 30°03' W 093°44'0 0.0
2018-Nov-02 11:29N 30°03' W 093°44'0 0.0
2018-Nov-02 11:02N 30°03' W 093°44'0 0.0
2018-Nov-02 10:59N 30°03' W 093°44'0 0.0
2018-Nov-02 10:29N 30°03' W 093°44'0 0.0
2018-Nov-02 10:02N 30°03' W 093°44'0 0.0
2018-Nov-02 09:59N 30°03' W 093°44'0 0.0
2018-Nov-02 09:28N 30°03' W 093°44'0 0.0
2018-Nov-02 09:01N 30°03' W 093°44'0 0.0
2018-Nov-02 08:55N 30°03' W 093°44'0 0.0
2018-Nov-02 08:28N 30°03' W 093°44'0 0.0
2018-Nov-02 08:01N 30°03' W 093°44'0 0.0
2018-Nov-02 07:58N 30°03' W 093°44'0 0.0
2018-Nov-02 07:28N 30°03' W 093°44'0 0.0
2018-Nov-02 07:01N 30°03' W 093°44'0 0.0
2018-Nov-02 06:55N 30°03' W 093°44'0 0.0
2018-Nov-02 06:28N 30°03' W 093°44'0 0.0
2018-Nov-02 06:01N 30°03' W 093°44'0 0.1
2018-Nov-02 05:58N 30°03' W 093°44'0 0.0
2018-Nov-02 05:28N 30°03' W 093°44'0 0.0
2018-Nov-02 05:01N 30°03' W 093°44'0 0.0
2018-Nov-02 04:49N 30°03' W 093°44'0 0.0
2018-Nov-02 04:28N 30°03' W 093°44'0 0.0
2018-Nov-02 04:01N 30°03' W 093°44'0 0.0
2018-Nov-02 03:58N 30°03' W 093°44'0 0.0
2018-Nov-02 03:28N 30°03' W 093°44'0 0.0
2018-Nov-02 03:01N 30°03' W 093°44'0 0.0
2018-Nov-02 02:49N 30°03' W 093°44'0 0.0
2018-Nov-02 02:25N 30°03' W 093°44'0 0.0
2018-Nov-02 02:01N 30°03' W 093°44'0 0.0
2018-Nov-02 01:55N 30°03' W 093°44'0 0.0
2018-Nov-02 01:25N 30°03' W 093°44'0 0.0
2018-Nov-02 01:01N 30°03' W 093°44'0 0.0
2018-Nov-02 00:52N 30°03' W 093°44'0 0.0
2018-Nov-02 00:31N 30°03' W 093°44'0 0.0
2018-Nov-02 00:28N 30°03' W 093°44'0 0.0
2018-Nov-01 23:58N 30°03' W 093°44'0 0.0
2018-Nov-01 23:19N 30°03' W 093°44'0 0.0
2018-Nov-01 22:34N 30°03' W 093°44'0 0.0
2018-Nov-01 22:16N 30°03' W 093°44'0 0.0
2018-Nov-01 21:58N 30°03' W 093°44'0 0.0
2018-Nov-01 21:04N 30°03' W 093°44'0 2.5
2018-Nov-01 21:03N 30°03' W 093°44'1 5.7
2018-Nov-01 20:58N 30°04' W 093°45'0 0.1
2018-Nov-01 20:29N 30°04' W 093°45'0 0.7
2018-Nov-01 19:45N 30°03' W 093°44'1 2.6
2018-Nov-01 19:29N 30°04' W 093°45'1 1.2
2018-Nov-01 18:52N 30°03' W 093°44'0 0.0
2018-Nov-01 18:16N 30°03' W 093°44'0 0.1
2018-Nov-01 16:43N 30°03' W 093°44'0 0.0
2018-Nov-01 16:18N 30°03' W 093°44'0 0.0
2018-Nov-01 16:01N 30°03' W 093°44'0 0.0
2018-Nov-01 15:25N 30°03' W 093°44'0 0.0
2018-Nov-01 14:57N 30°03' W 093°44'0 0.0
2018-Nov-01 14:31N 30°03' W 093°44'0 0.0
2018-Nov-01 14:01N 30°03' W 093°44'0 0.0
2018-Nov-01 13:28N 30°03' W 093°44'0 0.0
2018-Nov-01 13:03N 30°03' W 093°44'0 0.0
2018-Nov-01 13:00N 30°03' W 093°44'0 0.0
2018-Nov-01 12:31N 30°03' W 093°44'0 0.0
2018-Nov-01 12:04N 30°03' W 093°44'0 0.0
2018-Nov-01 11:52N 30°03' W 093°44'0 0.0
2018-Nov-01 11:31N 30°03' W 093°44'0 0.0
2018-Nov-01 11:03N 30°03' W 093°44'0 0.1
2018-Nov-01 11:00N 30°03' W 093°44'0 0.0
2018-Nov-01 10:21N 30°03' W 093°44'0 0.0
2018-Nov-01 10:03N 30°03' W 093°44'0 0.1
2018-Nov-01 09:57N 30°03' W 093°44'0 0.0
2018-Nov-01 09:24N 30°03' W 093°44'0 0.0
2018-Nov-01 09:03N 30°03' W 093°44'0 0.0
2018-Nov-01 08:57N 30°03' W 093°44'0 0.0
2018-Nov-01 08:30N 30°03' W 093°44'0 0.0
2018-Nov-01 08:00N 30°03' W 093°44'0 0.0
2018-Nov-01 07:30N 30°03' W 093°44'0 0.0
2018-Nov-01 07:03N 30°03' W 093°44'0 0.0
2018-Nov-01 07:00N 30°03' W 093°44'0 0.0
2018-Nov-01 06:27N 30°03' W 093°44'0 0.0
2018-Nov-01 06:03N 30°03' W 093°44'0 0.0
2018-Nov-01 06:00N 30°03' W 093°44'0 0.0
2018-Nov-01 05:30N 30°03' W 093°44'0 0.0
2018-Nov-01 05:03N 30°03' W 093°44'0 0.0
2018-Nov-01 04:57N 30°03' W 093°44'0 0.0
2018-Nov-01 03:51N 30°03' W 093°44'0 0.0
2018-Nov-01 03:27N 30°03' W 093°44'0 0.0
2018-Nov-01 02:51N 30°03' W 093°44'  

Dump ship's entire track history